createdAt,value
2019-01-11T00:02:59.262Z,4.63
2019-01-11T00:08:04.778Z,3.40
2019-01-11T00:13:09.513Z,2.87
2019-01-11T00:18:14.222Z,2.77
2019-01-11T00:23:22.639Z,2.90
2019-01-11T00:28:27.248Z,3.40
2019-01-11T00:33:32.854Z,2.67
2019-01-11T00:38:37.657Z,2.47
2019-01-11T00:43:42.363Z,2.73
2019-01-11T00:48:46.962Z,3.13
2019-01-11T00:53:51.545Z,2.33
2019-01-11T00:58:56.158Z,4.10
2019-01-11T01:04:00.801Z,3.40
2019-01-11T01:09:08.607Z,3.97
2019-01-11T01:14:13.234Z,3.57
2019-01-11T01:19:20.141Z,6.00
2019-01-11T01:24:24.128Z,5.10
2019-01-11T01:29:28.739Z,4.73
2019-01-11T01:34:33.261Z,7.13
2019-01-11T01:39:40.335Z,6.83
2019-01-11T01:44:50.561Z,6.53
2019-01-11T01:50:01.683Z,6.50
2019-01-11T01:55:07.624Z,6.60
2019-01-11T02:00:14.866Z,6.13
2019-01-11T02:05:19.514Z,6.80
2019-01-11T02:10:24.071Z,5.87
2019-01-11T02:15:28.593Z,7.10
2019-01-11T02:20:33.234Z,7.23
2019-01-11T02:25:37.954Z,5.73
2019-01-11T02:30:42.551Z,7.70
2019-01-11T02:35:47.248Z,8.07
2019-01-11T02:40:51.790Z,7.43
2019-01-11T02:45:56.542Z,8.00
2019-01-11T02:51:01.155Z,7.57
2019-01-11T02:56:05.734Z,9.87
2019-01-11T03:01:29.535Z,9.17
2019-01-11T03:06:34.011Z,10.27
2019-01-11T03:11:38.515Z,9.47
2019-01-11T03:16:45.260Z,13.70
2019-01-11T03:21:49.990Z,11.27
2019-01-11T03:26:58.228Z,11.97
2019-01-11T03:32:02.860Z,11.97
2019-01-11T03:37:07.541Z,11.17
2019-01-11T03:42:12.474Z,11.83
2019-01-11T03:47:20.029Z,14.83
2019-01-11T03:52:24.488Z,12.33
2019-01-11T03:57:29.110Z,8.83
2019-01-11T04:02:33.634Z,9.47
2019-01-11T04:07:38.257Z,8.10
2019-01-11T04:12:42.858Z,11.40
2019-01-11T04:17:58.694Z,8.70
2019-01-11T04:23:03.270Z,6.30
2019-01-11T04:28:07.900Z,8.13
2019-01-11T04:33:12.431Z,9.30
2019-01-11T04:38:17.257Z,8.67
2019-01-11T04:43:21.823Z,8.23
2019-01-11T04:48:26.607Z,9.60
2019-01-11T04:53:31.147Z,9.43
2019-01-11T04:58:36.624Z,12.73
2019-01-11T05:03:41.094Z,11.80
2019-01-11T05:08:46.012Z,11.17
2019-01-11T05:13:54.029Z,10.73
2019-01-11T05:18:58.759Z,12.90
2019-01-11T05:24:03.621Z,10.47
2019-01-11T05:29:08.505Z,12.97
2019-01-11T05:34:13.033Z,10.93
2019-01-11T05:39:17.938Z,10.57
2019-01-11T05:44:22.366Z,13.70
2019-01-11T05:49:26.852Z,13.53
2019-01-11T05:54:31.697Z,17.67
2019-01-11T05:59:36.142Z,12.33
2019-01-11T06:04:48.563Z,15.80
2019-01-11T06:09:53.411Z,15.43
2019-01-11T06:14:57.939Z,15.90
2019-01-11T06:20:02.494Z,15.37
2019-01-11T06:25:07.220Z,13.93
2019-01-11T06:30:13.539Z,15.53
2019-01-11T06:35:18.083Z,14.43
2019-01-11T06:40:22.766Z,12.60
2019-01-11T06:45:27.406Z,14.80
2019-01-11T06:50:36.446Z,12.17
2019-01-11T06:55:38.427Z,13.60
2019-01-11T07:00:43.051Z,15.67
2019-01-11T07:05:47.673Z,18.33
2019-01-11T07:10:52.412Z,15.53
2019-01-11T07:15:57.054Z,16.40
2019-01-11T07:21:01.491Z,13.30
2019-01-11T07:26:06.074Z,13.80
2019-01-11T07:31:13.013Z,11.13
2019-01-11T07:36:34.779Z,13.73
2019-01-11T07:41:39.258Z,15.80
2019-01-11T07:46:51.593Z,16.03
2019-01-11T07:51:59.313Z,14.57
2019-01-11T07:57:04.257Z,16.77
2019-01-11T08:02:08.939Z,12.87
2019-01-11T08:07:17.110Z,12.57
2019-01-11T08:12:21.766Z,11.20
2019-01-11T08:17:26.326Z,14.17
2019-01-11T08:22:36.423Z,13.53
2019-01-11T08:27:41.007Z,11.43
2019-01-11T08:32:45.652Z,13.47
2019-01-11T08:37:50.215Z,14.57
2019-01-11T08:42:54.717Z,16.83
2019-01-11T08:47:59.587Z,14.73
2019-01-11T08:53:04.206Z,13.97
2019-01-11T08:58:08.898Z,14.80
2019-01-11T09:03:13.571Z,16.70
2019-01-11T09:08:18.070Z,12.23
2019-01-11T09:13:22.715Z,14.83
2019-01-11T09:18:52.176Z,13.77
2019-01-11T09:23:56.855Z,13.87
2019-01-11T09:29:02.240Z,12.50
2019-01-11T09:34:07.035Z,19.07
2019-01-11T09:39:11.650Z,16.40
2019-01-11T09:44:17.797Z,13.77
2019-01-11T09:49:22.341Z,18.00
2019-01-11T09:54:43.203Z,19.60
2019-01-11T09:59:47.812Z,18.90
2019-01-11T10:04:52.595Z,15.37
2019-01-11T10:09:57.139Z,19.47
2019-01-11T10:15:01.804Z,22.40
2019-01-11T10:20:07.332Z,21.57
2019-01-11T10:25:12.742Z,18.80
2019-01-11T10:30:22.162Z,19.47
2019-01-11T10:35:26.885Z,14.67
2019-01-11T10:40:31.835Z,15.63
2019-01-11T10:45:36.525Z,20.47
2019-01-11T10:50:41.056Z,19.83
2019-01-11T10:55:45.621Z,23.33
2019-01-11T11:00:50.238Z,23.43
2019-01-11T11:05:54.970Z,19.23
2019-01-11T11:11:05.665Z,15.93
2019-01-11T11:16:10.228Z,20.70
2019-01-11T11:21:14.950Z,18.13
2019-01-11T11:26:19.626Z,19.00
2019-01-11T11:31:24.242Z,18.47
2019-01-11T11:36:29.711Z,20.17
2019-01-11T11:41:34.508Z,21.80
2019-01-11T11:46:39.242Z,19.80
2019-01-11T11:51:43.911Z,20.27
2019-01-11T11:56:48.421Z,17.83
2019-01-11T12:01:53.823Z,17.60
2019-01-11T12:06:58.401Z,16.57
2019-01-11T12:12:02.938Z,19.20
2019-01-11T12:17:07.470Z,21.53
2019-01-11T12:22:12.220Z,18.57
2019-01-11T12:27:17.136Z,21.87
2019-01-11T12:32:22.102Z,15.70
2019-01-11T12:37:26.581Z,15.40
2019-01-11T12:42:31.146Z,17.00
2019-01-11T12:47:35.682Z,16.77
2019-01-11T12:52:40.291Z,17.00
2019-01-11T12:57:44.818Z,17.90
2019-01-11T13:02:49.413Z,13.97
2019-01-11T13:07:54.087Z,14.47
2019-01-11T13:12:58.780Z,14.10
2019-01-11T13:18:03.398Z,12.03
2019-01-11T13:23:07.944Z,10.53
2019-01-11T13:28:12.720Z,8.27
2019-01-11T13:33:17.406Z,7.10
2019-01-11T13:38:21.957Z,6.47
2019-01-11T13:43:26.719Z,5.67
2019-01-11T13:48:31.270Z,5.83
2019-01-11T13:53:35.705Z,5.17
2019-01-11T13:58:40.305Z,4.60
2019-01-11T14:03:44.838Z,4.67
2019-01-11T14:08:49.460Z,5.03
2019-01-11T14:13:54.154Z,4.43
2019-01-11T14:18:58.724Z,4.63
2019-01-11T14:24:03.151Z,3.63
2019-01-11T14:29:07.691Z,3.50
2019-01-11T14:34:12.335Z,4.07
2019-01-11T14:39:16.808Z,4.50
2019-01-11T14:44:21.332Z,3.77
2019-01-11T14:49:25.902Z,3.83
2019-01-11T14:54:30.596Z,4.53
2019-01-11T14:59:35.100Z,3.97
2019-01-11T15:04:39.850Z,3.67
2019-01-11T15:09:44.510Z,3.70
2019-01-11T15:14:49.043Z,3.33
2019-01-11T15:19:53.843Z,3.57
2019-01-11T15:24:58.486Z,3.33
2019-01-11T15:30:02.996Z,3.57
2019-01-11T15:35:07.770Z,3.00
2019-01-11T15:40:16.255Z,3.53
2019-01-11T15:45:20.899Z,3.50
2019-01-11T15:50:51.675Z,3.03
2019-01-11T15:55:59.238Z,4.47
2019-01-11T16:01:04.341Z,3.60
2019-01-11T16:06:40.990Z,3.40
2019-01-11T16:11:49.073Z,3.47
2019-01-11T16:17:05.721Z,3.40
2019-01-11T16:22:10.350Z,3.73
2019-01-11T16:27:14.946Z,3.37
2019-01-11T16:32:19.618Z,3.63
2019-01-11T16:37:24.290Z,3.10
2019-01-11T16:42:28.742Z,2.33
2019-01-11T16:47:33.450Z,2.63
2019-01-11T16:52:38.063Z,2.70
2019-01-11T16:57:42.591Z,3.60
2019-01-11T17:02:47.249Z,3.37
2019-01-11T17:07:51.831Z,3.03
2019-01-11T17:12:56.373Z,3.10
2019-01-11T17:18:00.936Z,4.03
2019-01-11T17:23:05.604Z,4.33
2019-01-11T17:28:10.285Z,4.03
2019-01-11T17:33:14.800Z,4.17
2019-01-11T17:38:19.551Z,4.67
2019-01-11T17:43:24.222Z,5.30
2019-01-11T17:48:28.801Z,5.30
2019-01-11T17:53:33.483Z,5.43
2019-01-11T17:58:38.094Z,4.90
2019-01-11T18:03:42.712Z,5.97
2019-01-11T18:08:47.210Z,7.17
2019-01-11T18:13:51.750Z,5.70
2019-01-11T18:18:56.354Z,6.43
2019-01-11T18:24:00.995Z,5.30
2019-01-11T18:29:05.531Z,6.97
2019-01-11T18:34:10.777Z,5.30
2019-01-11T18:39:18.285Z,4.50
2019-01-11T18:44:25.921Z,5.03
2019-01-11T18:49:30.576Z,4.10
2019-01-11T18:54:35.483Z,4.43
2019-01-11T18:59:39.967Z,5.17
2019-01-11T19:04:44.610Z,3.97
2019-01-11T19:09:49.431Z,3.30
2019-01-11T19:14:53.987Z,4.80
2019-01-11T19:19:58.625Z,4.90
2019-01-11T19:25:03.837Z,5.10
2019-01-11T19:30:14.902Z,5.07
2019-01-11T19:35:19.782Z,4.17
2019-01-11T19:40:24.427Z,4.87
2019-01-11T19:45:29.163Z,4.87
2019-01-11T19:50:36.583Z,4.37
2019-01-11T19:55:41.219Z,4.47
2019-01-11T20:00:46.144Z,4.33
2019-01-11T20:05:50.947Z,4.83
2019-01-11T20:10:55.722Z,3.77
2019-01-11T20:16:00.791Z,4.30
2019-01-11T20:21:05.962Z,3.90
2019-01-11T20:26:10.667Z,4.60
2019-01-11T20:31:15.563Z,4.40
2019-01-11T20:36:20.663Z,4.10
2019-01-11T20:41:25.299Z,4.07
2019-01-11T20:46:29.751Z,3.90
2019-01-11T20:51:34.499Z,3.90
2019-01-11T20:56:39.219Z,3.73
2019-01-11T21:01:43.954Z,3.80
2019-01-11T21:06:48.710Z,5.47
2019-01-11T21:11:53.379Z,4.97
2019-01-11T21:16:58.059Z,4.90
2019-01-11T21:22:02.829Z,4.40
2019-01-11T21:27:07.569Z,4.57
2019-01-11T21:32:12.612Z,4.17
2019-01-11T21:37:17.273Z,4.70
2019-01-11T21:42:22.218Z,4.67
2019-01-11T21:47:30.099Z,4.43
2019-01-11T21:52:34.983Z,5.00
2019-01-11T21:57:44.601Z,4.83
2019-01-11T22:02:49.459Z,4.93
2019-01-11T22:07:54.089Z,5.07
2019-01-11T22:12:58.699Z,5.13
2019-01-11T22:18:04.725Z,4.23
2019-01-11T22:23:09.594Z,3.97
2019-01-11T22:28:14.243Z,4.03
2019-01-11T22:33:18.790Z,3.60
2019-01-11T22:38:23.374Z,4.20
2019-01-11T22:43:27.901Z,3.60
2019-01-11T22:48:32.559Z,3.70
2019-01-11T22:53:37.485Z,4.00
2019-01-11T22:58:42.034Z,3.80
2019-01-11T23:03:49.793Z,3.60
2019-01-11T23:08:57.278Z,3.77
2019-01-11T23:14:03.655Z,3.23
2019-01-11T23:19:08.555Z,4.30
2019-01-11T23:24:17.284Z,3.93
2019-01-11T23:29:20.059Z,4.07
2019-01-11T23:34:24.744Z,4.50
2019-01-11T23:39:29.398Z,5.17
2019-01-11T23:44:34.078Z,6.20
2019-01-11T23:49:38.655Z,6.00
2019-01-11T23:54:43.174Z,6.57
2019-01-11T23:59:47.821Z,5.00
